sensor_id;sensor_type;location;lat;lon;timestamp;P1;durP1;ratioP1;P2;durP2;ratioP2
72524;SDS011;60547;48.502;8.996;2023-03-11T00:01:48;0.90;;;0.70;;
72524;SDS011;60547;48.502;8.996;2023-03-11T00:04:14;1.58;;;0.73;;
72524;SDS011;60547;48.502;8.996;2023-03-11T00:06:40;0.77;;;0.68;;
72524;SDS011;60547;48.502;8.996;2023-03-11T00:09:05;0.90;;;0.60;;
72524;SDS011;60547;48.502;8.996;2023-03-11T00:11:31;1.00;;;0.60;;
72524;SDS011;60547;48.502;8.996;2023-03-11T00:13:56;1.88;;;0.90;;
72524;SDS011;60547;48.502;8.996;2023-03-11T00:16:22;1.95;;;0.90;;
72524;SDS011;60547;48.502;8.996;2023-03-11T00:18:50;2.28;;;0.93;;
72524;SDS011;60547;48.502;8.996;2023-03-11T00:21:17;2.35;;;1.10;;
72524;SDS011;60547;48.502;8.996;2023-03-11T00:23:44;1.70;;;0.80;;
72524;SDS011;60547;48.502;8.996;2023-03-11T00:26:10;1.50;;;0.82;;
72524;SDS011;60547;48.502;8.996;2023-03-11T00:28:36;2.30;;;1.02;;
72524;SDS011;60547;48.502;8.996;2023-03-11T00:31:02;1.85;;;1.00;;
72524;SDS011;60547;48.502;8.996;2023-03-11T00:33:27;1.67;;;0.90;;
72524;SDS011;60547;48.502;8.996;2023-03-11T00:35:53;1.85;;;0.90;;
72524;SDS011;60547;48.502;8.996;2023-03-11T00:38:18;3.10;;;1.02;;
72524;SDS011;60547;48.502;8.996;2023-03-11T00:40:45;1.90;;;1.00;;
72524;SDS011;60547;48.502;8.996;2023-03-11T00:43:12;2.00;;;0.98;;
72524;SDS011;60547;48.502;8.996;2023-03-11T00:45:38;1.92;;;1.23;;
72524;SDS011;60547;48.502;8.996;2023-03-11T00:48:04;2.33;;;0.85;;
72524;SDS011;60547;48.502;8.996;2023-03-11T00:50:32;2.78;;;1.00;;
72524;SDS011;60547;48.502;8.996;2023-03-11T00:52:59;2.15;;;1.10;;
72524;SDS011;60547;48.502;8.996;2023-03-11T00:55:26;1.75;;;1.00;;
72524;SDS011;60547;48.502;8.996;2023-03-11T00:57:57;2.45;;;1.42;;
72524;SDS011;60547;48.502;8.996;2023-03-11T01:00:24;1.95;;;1.00;;
72524;SDS011;60547;48.502;8.996;2023-03-11T01:02:52;4.15;;;1.33;;
72524;SDS011;60547;48.502;8.996;2023-03-11T01:05:19;2.80;;;1.13;;
72524;SDS011;60547;48.502;8.996;2023-03-11T01:07:47;2.58;;;1.05;;
72524;SDS011;60547;48.502;8.996;2023-03-11T01:10:13;2.85;;;1.05;;
72524;SDS011;60547;48.502;8.996;2023-03-11T01:12:40;2.70;;;1.27;;
72524;SDS011;60547;48.502;8.996;2023-03-11T01:15:07;2.97;;;1.30;;
72524;SDS011;60547;48.502;8.996;2023-03-11T01:17:33;3.50;;;1.10;;
72524;SDS011;60547;48.502;8.996;2023-03-11T01:19:59;1.38;;;0.82;;
72524;SDS011;60547;48.502;8.996;2023-03-11T01:22:24;2.65;;;1.00;;
72524;SDS011;60547;48.502;8.996;2023-03-11T01:24:50;3.35;;;1.10;;
72524;SDS011;60547;48.502;8.996;2023-03-11T01:27:17;1.52;;;0.90;;
72524;SDS011;60547;48.502;8.996;2023-03-11T01:29:43;1.27;;;0.80;;
72524;SDS011;60547;48.502;8.996;2023-03-11T01:32:09;2.25;;;0.98;;
72524;SDS011;60547;48.502;8.996;2023-03-11T01:34:35;2.28;;;1.15;;
72524;SDS011;60547;48.502;8.996;2023-03-11T01:37:01;3.25;;;1.20;;
72524;SDS011;60547;48.502;8.996;2023-03-11T01:39:28;2.28;;;0.90;;
72524;SDS011;60547;48.502;8.996;2023-03-11T01:41:53;2.33;;;1.45;;
72524;SDS011;60547;48.502;8.996;2023-03-11T01:44:20;3.25;;;1.10;;
72524;SDS011;60547;48.502;8.996;2023-03-11T01:49:17;2.15;;;1.15;;
72524;SDS011;60547;48.502;8.996;2023-03-11T01:51:44;1.83;;;1.05;;
72524;SDS011;60547;48.502;8.996;2023-03-11T01:54:14;2.03;;;1.00;;
72524;SDS011;60547;48.502;8.996;2023-03-11T01:56:42;2.20;;;1.20;;
72524;SDS011;60547;48.502;8.996;2023-03-11T01:59:10;2.38;;;1.17;;
72524;SDS011;60547;48.502;8.996;2023-03-11T02:01:46;2.05;;;0.90;;
72524;SDS011;60547;48.502;8.996;2023-03-11T02:04:22;2.75;;;1.33;;
72524;SDS011;60547;48.502;8.996;2023-03-11T02:06:47;1.67;;;1.00;;
72524;SDS011;60547;48.502;8.996;2023-03-11T02:09:13;2.83;;;1.20;;
72524;SDS011;60547;48.502;8.996;2023-03-11T02:11:39;2.97;;;1.30;;
72524;SDS011;60547;48.502;8.996;2023-03-11T02:14:05;2.30;;;1.10;;
72524;SDS011;60547;48.502;8.996;2023-03-11T02:16:32;5.43;;;1.60;;
72524;SDS011;60547;48.502;8.996;2023-03-11T02:18:59;3.25;;;1.25;;
72524;SDS011;60547;48.502;8.996;2023-03-11T02:21:33;3.08;;;1.20;;
72524;SDS011;60547;48.502;8.996;2023-03-11T02:29:17;2.63;;;1.23;;
72524;SDS011;60547;48.502;8.996;2023-03-11T02:31:45;2.95;;;1.10;;
72524;SDS011;60547;48.502;8.996;2023-03-11T02:34:18;2.90;;;1.38;;
72524;SDS011;60547;48.502;8.996;2023-03-11T02:36:48;2.88;;;1.13;;
72524;SDS011;60547;48.502;8.996;2023-03-11T02:39:14;2.40;;;1.17;;
72524;SDS011;60547;48.502;8.996;2023-03-11T02:41:40;2.42;;;1.20;;
72524;SDS011;60547;48.502;8.996;2023-03-11T02:44:11;2.50;;;1.50;;
72524;SDS011;60547;48.502;8.996;2023-03-11T02:46:39;2.60;;;1.20;;
72524;SDS011;60547;48.502;8.996;2023-03-11T02:49:06;1.67;;;1.02;;
72524;SDS011;60547;48.502;8.996;2023-03-11T02:51:32;3.47;;;1.15;;
72524;SDS011;60547;48.502;8.996;2023-03-11T02:53:58;2.70;;;1.02;;
72524;SDS011;60547;48.502;8.996;2023-03-11T02:56:27;4.57;;;1.30;;
72524;SDS011;60547;48.502;8.996;2023-03-11T02:58:52;3.42;;;1.30;;
72524;SDS011;60547;48.502;8.996;2023-03-11T03:01:18;2.63;;;0.90;;
72524;SDS011;60547;48.502;8.996;2023-03-11T03:03:44;2.45;;;1.20;;
72524;SDS011;60547;48.502;8.996;2023-03-11T03:06:09;2.92;;;1.10;;
72524;SDS011;60547;48.502;8.996;2023-03-11T03:08:36;2.53;;;1.00;;
72524;SDS011;60547;48.502;8.996;2023-03-11T03:11:02;2.33;;;1.20;;
72524;SDS011;60547;48.502;8.996;2023-03-11T03:13:27;1.65;;;1.20;;
72524;SDS011;60547;48.502;8.996;2023-03-11T03:15:53;2.83;;;1.17;;
72524;SDS011;60547;48.502;8.996;2023-03-11T03:18:19;2.85;;;1.00;;
72524;SDS011;60547;48.502;8.996;2023-03-11T03:20:45;2.58;;;1.17;;
72524;SDS011;60547;48.502;8.996;2023-03-11T03:23:11;2.50;;;1.15;;
72524;SDS011;60547;48.502;8.996;2023-03-11T03:25:36;2.97;;;1.02;;
72524;SDS011;60547;48.502;8.996;2023-03-11T03:28:02;2.33;;;1.25;;
72524;SDS011;60547;48.502;8.996;2023-03-11T03:30:27;3.00;;;1.17;;
72524;SDS011;60547;48.502;8.996;2023-03-11T03:32:53;3.30;;;0.85;;
72524;SDS011;60547;48.502;8.996;2023-03-11T03:35:20;2.22;;;1.20;;
72524;SDS011;60547;48.502;8.996;2023-03-11T03:37:45;2.53;;;1.10;;
72524;SDS011;60547;48.502;8.996;2023-03-11T03:40:11;3.58;;;1.00;;
72524;SDS011;60547;48.502;8.996;2023-03-11T03:42:37;2.47;;;1.08;;
72524;SDS011;60547;48.502;8.996;2023-03-11T03:45:04;2.42;;;1.10;;
72524;SDS011;60547;48.502;8.996;2023-03-11T03:47:32;2.97;;;1.10;;
72524;SDS011;60547;48.502;8.996;2023-03-11T03:49:58;2.63;;;1.17;;
72524;SDS011;60547;48.502;8.996;2023-03-11T03:52:23;2.60;;;1.00;;
72524;SDS011;60547;48.502;8.996;2023-03-11T03:54:49;2.03;;;1.10;;
72524;SDS011;60547;48.502;8.996;2023-03-11T03:57:14;2.85;;;1.13;;
72524;SDS011;60547;48.502;8.996;2023-03-11T03:59:40;2.05;;;1.10;;
72524;SDS011;60547;48.502;8.996;2023-03-11T04:02:05;1.48;;;0.90;;
72524;SDS011;60547;48.502;8.996;2023-03-11T04:04:31;3.55;;;1.27;;
72524;SDS011;60547;48.502;8.996;2023-03-11T04:06:57;2.22;;;1.38;;
72524;SDS011;60547;48.502;8.996;2023-03-11T04:09:22;4.60;;;1.20;;
72524;SDS011;60547;48.502;8.996;2023-03-11T04:11:49;2.85;;;1.17;;
72524;SDS011;60547;48.502;8.996;2023-03-11T04:14:14;2.35;;;1.02;;
72524;SDS011;60547;48.502;8.996;2023-03-11T04:16:40;3.90;;;1.08;;
72524;SDS011;60547;48.502;8.996;2023-03-11T04:19:06;1.58;;;0.90;;
72524;SDS011;60547;48.502;8.996;2023-03-11T04:21:32;3.28;;;1.40;;
72524;SDS011;60547;48.502;8.996;2023-03-11T04:23:58;3.85;;;1.00;;
72524;SDS011;60547;48.502;8.996;2023-03-11T04:26:24;1.98;;;1.10;;
72524;SDS011;60547;48.502;8.996;2023-03-11T04:28:50;2.08;;;1.10;;
72524;SDS011;60547;48.502;8.996;2023-03-11T04:31:15;1.48;;;0.90;;
72524;SDS011;60547;48.502;8.996;2023-03-11T04:33:41;3.08;;;1.15;;
72524;SDS011;60547;48.502;8.996;2023-03-11T04:36:07;3.00;;;1.15;;
72524;SDS011;60547;48.502;8.996;2023-03-11T04:38:33;2.97;;;1.10;;
72524;SDS011;60547;48.502;8.996;2023-03-11T04:41:00;3.42;;;1.10;;
72524;SDS011;60547;48.502;8.996;2023-03-11T04:43:27;4.38;;;1.63;;
72524;SDS011;60547;48.502;8.996;2023-03-11T04:45:53;3.22;;;1.00;;
72524;SDS011;60547;48.502;8.996;2023-03-11T04:48:19;2.40;;;1.00;;
72524;SDS011;60547;48.502;8.996;2023-03-11T04:50:44;1.02;;;0.90;;
72524;SDS011;60547;48.502;8.996;2023-03-11T04:53:10;2.65;;;1.10;;
72524;SDS011;60547;48.502;8.996;2023-03-11T04:55:36;4.25;;;1.17;;
72524;SDS011;60547;48.502;8.996;2023-03-11T04:58:02;2.47;;;0.90;;
72524;SDS011;60547;48.502;8.996;2023-03-11T05:00:28;2.63;;;1.27;;
72524;SDS011;60547;48.502;8.996;2023-03-11T05:02:53;3.08;;;0.95;;
72524;SDS011;60547;48.502;8.996;2023-03-11T05:05:19;2.75;;;1.20;;
72524;SDS011;60547;48.502;8.996;2023-03-11T05:07:47;2.50;;;1.02;;
72524;SDS011;60547;48.502;8.996;2023-03-11T05:10:13;1.48;;;0.90;;
72524;SDS011;60547;48.502;8.996;2023-03-11T05:12:39;2.50;;;1.00;;
72524;SDS011;60547;48.502;8.996;2023-03-11T05:15:05;1.52;;;0.80;;
72524;SDS011;60547;48.502;8.996;2023-03-11T05:17:31;2.67;;;1.08;;
72524;SDS011;60547;48.502;8.996;2023-03-11T05:19:57;1.58;;;0.80;;
72524;SDS011;60547;48.502;8.996;2023-03-11T05:22:23;3.20;;;1.15;;
72524;SDS011;60547;48.502;8.996;2023-03-11T05:24:48;3.13;;;1.08;;
72524;SDS011;60547;48.502;8.996;2023-03-11T05:27:15;9.63;;;2.60;;
72524;SDS011;60547;48.502;8.996;2023-03-11T05:29:44;5.00;;;2.45;;
72524;SDS011;60547;48.502;8.996;2023-03-11T05:32:10;5.63;;;1.92;;
72524;SDS011;60547;48.502;8.996;2023-03-11T05:34:36;3.45;;;1.42;;
72524;SDS011;60547;48.502;8.996;2023-03-11T05:37:17;2.65;;;1.10;;
72524;SDS011;60547;48.502;8.996;2023-03-11T05:39:43;4.35;;;1.70;;
72524;SDS011;60547;48.502;8.996;2023-03-11T05:42:09;2.72;;;1.20;;
72524;SDS011;60547;48.502;8.996;2023-03-11T05:44:36;3.55;;;1.30;;
72524;SDS011;60547;48.502;8.996;2023-03-11T05:47:01;5.32;;;1.25;;
72524;SDS011;60547;48.502;8.996;2023-03-11T05:49:27;3.28;;;1.33;;
72524;SDS011;60547;48.502;8.996;2023-03-11T05:51:53;1.95;;;1.13;;
72524;SDS011;60547;48.502;8.996;2023-03-11T05:54:18;1.73;;;1.02;;
72524;SDS011;60547;48.502;8.996;2023-03-11T05:56:45;2.60;;;1.40;;
72524;SDS011;60547;48.502;8.996;2023-03-11T05:59:12;3.78;;;1.52;;
72524;SDS011;60547;48.502;8.996;2023-03-11T06:01:38;4.35;;;1.75;;
72524;SDS011;60547;48.502;8.996;2023-03-11T06:04:04;3.45;;;1.45;;
72524;SDS011;60547;48.502;8.996;2023-03-11T06:06:30;3.10;;;1.60;;
72524;SDS011;60547;48.502;8.996;2023-03-11T06:08:56;4.80;;;1.88;;
72524;SDS011;60547;48.502;8.996;2023-03-11T06:11:22;4.60;;;1.92;;
72524;SDS011;60547;48.502;8.996;2023-03-11T06:13:51;4.60;;;1.83;;
72524;SDS011;60547;48.502;8.996;2023-03-11T06:16:19;4.88;;;1.90;;
72524;SDS011;60547;48.502;8.996;2023-03-11T06:18:45;3.28;;;1.98;;
72524;SDS011;60547;48.502;8.996;2023-03-11T06:21:14;4.10;;;1.67;;
72524;SDS011;60547;48.502;8.996;2023-03-11T06:23:41;4.53;;;1.52;;
72524;SDS011;60547;48.502;8.996;2023-03-11T06:26:09;5.15;;;2.00;;
72524;SDS011;60547;48.502;8.996;2023-03-11T06:28:38;4.72;;;2.28;;
72524;SDS011;60547;48.502;8.996;2023-03-11T06:31:45;3.33;;;1.85;;
72524;SDS011;60547;48.502;8.996;2023-03-11T06:33:52;4.60;;;2.30;;
72524;SDS011;60547;48.502;8.996;2023-03-11T06:36:20;4.20;;;1.67;;
72524;SDS011;60547;48.502;8.996;2023-03-11T06:38:46;3.65;;;1.67;;
72524;SDS011;60547;48.502;8.996;2023-03-11T06:41:15;4.07;;;1.80;;
72524;SDS011;60547;48.502;8.996;2023-03-11T06:43:42;4.22;;;2.15;;
72524;SDS011;60547;48.502;8.996;2023-03-11T06:46:08;5.20;;;2.00;;
72524;SDS011;60547;48.502;8.996;2023-03-11T06:48:35;3.40;;;1.85;;
72524;SDS011;60547;48.502;8.996;2023-03-11T06:51:01;5.35;;;2.17;;
72524;SDS011;60547;48.502;8.996;2023-03-11T06:53:28;3.42;;;1.88;;
72524;SDS011;60547;48.502;8.996;2023-03-11T06:55:58;4.30;;;1.60;;
72524;SDS011;60547;48.502;8.996;2023-03-11T06:58:23;3.63;;;1.63;;
72524;SDS011;60547;48.502;8.996;2023-03-11T07:00:49;3.38;;;1.58;;
72524;SDS011;60547;48.502;8.996;2023-03-11T07:03:14;2.45;;;1.27;;
72524;SDS011;60547;48.502;8.996;2023-03-11T07:05:40;2.65;;;1.15;;
72524;SDS011;60547;48.502;8.996;2023-03-11T07:08:06;3.25;;;1.20;;
72524;SDS011;60547;48.502;8.996;2023-03-11T07:10:31;4.68;;;1.77;;
72524;SDS011;60547;48.502;8.996;2023-03-11T07:12:56;6.97;;;3.10;;
72524;SDS011;60547;48.502;8.996;2023-03-11T07:15:22;6.13;;;2.35;;
72524;SDS011;60547;48.502;8.996;2023-03-11T07:17:48;5.65;;;2.13;;
72524;SDS011;60547;48.502;8.996;2023-03-11T07:20:13;5.00;;;1.80;;
72524;SDS011;60547;48.502;8.996;2023-03-11T07:22:39;4.45;;;1.50;;
72524;SDS011;60547;48.502;8.996;2023-03-11T07:25:04;5.78;;;1.92;;
72524;SDS011;60547;48.502;8.996;2023-03-11T07:27:30;5.43;;;2.60;;
72524;SDS011;60547;48.502;8.996;2023-03-11T07:29:56;4.82;;;1.73;;
72524;SDS011;60547;48.502;8.996;2023-03-11T07:32:21;5.07;;;2.05;;
72524;SDS011;60547;48.502;8.996;2023-03-11T07:34:47;5.25;;;2.35;;
72524;SDS011;60547;48.502;8.996;2023-03-11T07:37:12;7.72;;;2.30;;
72524;SDS011;60547;48.502;8.996;2023-03-11T07:39:38;4.82;;;2.17;;
72524;SDS011;60547;48.502;8.996;2023-03-11T07:42:05;3.85;;;2.00;;
72524;SDS011;60547;48.502;8.996;2023-03-11T07:44:30;3.83;;;1.27;;
72524;SDS011;60547;48.502;8.996;2023-03-11T07:46:56;2.55;;;1.40;;
72524;SDS011;60547;48.502;8.996;2023-03-11T07:49:21;3.03;;;1.17;;
72524;SDS011;60547;48.502;8.996;2023-03-11T07:51:47;3.88;;;1.27;;
72524;SDS011;60547;48.502;8.996;2023-03-11T07:54:12;2.20;;;1.20;;
72524;SDS011;60547;48.502;8.996;2023-03-11T07:56:38;2.60;;;1.00;;
72524;SDS011;60547;48.502;8.996;2023-03-11T07:59:03;4.22;;;1.10;;
72524;SDS011;60547;48.502;8.996;2023-03-11T08:01:29;2.97;;;1.40;;
72524;SDS011;60547;48.502;8.996;2023-03-11T08:04:00;3.60;;;1.27;;
72524;SDS011;60547;48.502;8.996;2023-03-11T08:06:27;2.17;;;1.10;;
72524;SDS011;60547;48.502;8.996;2023-03-11T08:08:56;5.95;;;1.15;;
72524;SDS011;60547;48.502;8.996;2023-03-11T08:11:22;3.05;;;1.15;;
72524;SDS011;60547;48.502;8.996;2023-03-11T08:13:48;4.93;;;1.45;;
72524;SDS011;60547;48.502;8.996;2023-03-11T08:16:15;4.03;;;1.00;;
72524;SDS011;60547;48.502;8.996;2023-03-11T08:18:42;2.45;;;1.00;;
72524;SDS011;60547;48.502;8.996;2023-03-11T08:21:13;5.47;;;0.82;;
72524;SDS011;60547;48.502;8.996;2023-03-11T08:23:40;3.85;;;0.98;;
72524;SDS011;60547;48.502;8.996;2023-03-11T08:26:06;3.13;;;1.15;;
72524;SDS011;60547;48.502;8.996;2023-03-11T08:28:34;4.13;;;1.48;;
72524;SDS011;60547;48.502;8.996;2023-03-11T08:31:01;6.97;;;1.30;;
72524;SDS011;60547;48.502;8.996;2023-03-11T08:33:26;4.50;;;1.27;;
72524;SDS011;60547;48.502;8.996;2023-03-11T08:35:52;4.47;;;1.15;;
72524;SDS011;60547;48.502;8.996;2023-03-11T08:38:18;5.47;;;1.30;;
72524;SDS011;60547;48.502;8.996;2023-03-11T08:40:44;4.78;;;1.42;;
72524;SDS011;60547;48.502;8.996;2023-03-11T08:43:12;2.00;;;1.08;;
72524;SDS011;60547;48.502;8.996;2023-03-11T08:45:42;4.15;;;1.67;;
72524;SDS011;60547;48.502;8.996;2023-03-11T08:48:11;3.53;;;1.83;;
72524;SDS011;60547;48.502;8.996;2023-03-11T08:50:39;4.28;;;1.70;;
72524;SDS011;60547;48.502;8.996;2023-03-11T08:53:06;2.97;;;1.30;;
72524;SDS011;60547;48.502;8.996;2023-03-11T08:55:33;3.60;;;1.17;;
72524;SDS011;60547;48.502;8.996;2023-03-11T08:57:58;3.22;;;1.20;;
72524;SDS011;60547;48.502;8.996;2023-03-11T09:00:24;2.90;;;1.08;;
72524;SDS011;60547;48.502;8.996;2023-03-11T09:02:51;3.65;;;1.27;;
72524;SDS011;60547;48.502;8.996;2023-03-11T09:05:17;4.13;;;1.20;;
72524;SDS011;60547;48.502;8.996;2023-03-11T09:07:42;3.97;;;1.17;;
72524;SDS011;60547;48.502;8.996;2023-03-11T09:10:10;4.03;;;1.60;;
72524;SDS011;60547;48.502;8.996;2023-03-11T09:12:38;5.97;;;1.50;;
72524;SDS011;60547;48.502;8.996;2023-03-11T09:15:04;5.30;;;1.40;;
72524;SDS011;60547;48.502;8.996;2023-03-11T09:17:30;5.35;;;1.33;;
72524;SDS011;60547;48.502;8.996;2023-03-11T09:19:55;5.32;;;1.90;;
72524;SDS011;60547;48.502;8.996;2023-03-11T09:22:21;5.13;;;1.50;;
72524;SDS011;60547;48.502;8.996;2023-03-11T09:24:46;2.15;;;1.00;;
72524;SDS011;60547;48.502;8.996;2023-03-11T09:27:12;4.40;;;1.10;;
72524;SDS011;60547;48.502;8.996;2023-03-11T09:29:39;4.13;;;1.30;;
72524;SDS011;60547;48.502;8.996;2023-03-11T09:32:05;2.97;;;1.20;;
72524;SDS011;60547;48.502;8.996;2023-03-11T09:34:30;2.55;;;1.10;;
72524;SDS011;60547;48.502;8.996;2023-03-11T09:36:56;3.65;;;1.10;;
72524;SDS011;60547;48.502;8.996;2023-03-11T09:39:21;3.80;;;1.33;;
72524;SDS011;60547;48.502;8.996;2023-03-11T09:41:52;3.10;;;1.48;;
72524;SDS011;60547;48.502;8.996;2023-03-11T09:44:50;8.23;;;2.47;;
72524;SDS011;60547;48.502;8.996;2023-03-11T09:47:37;3.95;;;1.67;;
72524;SDS011;60547;48.502;8.996;2023-03-11T09:50:19;2.70;;;1.20;;
72524;SDS011;60547;48.502;8.996;2023-03-11T09:58:14;6.85;;;2.40;;
72524;SDS011;60547;48.502;8.996;2023-03-11T10:00:50;4.03;;;1.20;;
72524;SDS011;60547;48.502;8.996;2023-03-11T10:03:20;4.68;;;1.83;;
72524;SDS011;60547;48.502;8.996;2023-03-11T10:05:53;4.28;;;1.50;;
72524;SDS011;60547;48.502;8.996;2023-03-11T10:08:29;4.65;;;1.92;;
72524;SDS011;60547;48.502;8.996;2023-03-11T10:11:07;5.38;;;1.60;;
72524;SDS011;60547;48.502;8.996;2023-03-11T10:13:53;3.97;;;1.40;;
72524;SDS011;60547;48.502;8.996;2023-03-11T10:19:24;3.42;;;1.20;;
72524;SDS011;60547;48.502;8.996;2023-03-11T10:25:10;4.18;;;1.40;;
72524;SDS011;60547;48.502;8.996;2023-03-11T10:27:42;13.25;;;1.90;;
72524;SDS011;60547;48.502;8.996;2023-03-11T10:30:18;3.40;;;1.55;;
72524;SDS011;60547;48.502;8.996;2023-03-11T10:33:06;2.70;;;1.02;;
72524;SDS011;60547;48.502;8.996;2023-03-11T10:35:52;2.55;;;1.15;;
72524;SDS011;60547;48.502;8.996;2023-03-11T10:38:28;2.10;;;1.00;;
72524;SDS011;60547;48.502;8.996;2023-03-11T10:40:57;1.75;;;0.98;;
72524;SDS011;60547;48.502;8.996;2023-03-11T10:45:51;2.80;;;1.25;;
72524;SDS011;60547;48.502;8.996;2023-03-11T10:48:18;2.78;;;1.05;;
72524;SDS011;60547;48.502;8.996;2023-03-11T10:50:46;1.80;;;0.70;;
72524;SDS011;60547;48.502;8.996;2023-03-11T10:53:17;3.92;;;0.90;;
72524;SDS011;60547;48.502;8.996;2023-03-11T10:55:47;2.80;;;1.35;;
72524;SDS011;60547;48.502;8.996;2023-03-11T10:58:16;3.25;;;1.20;;
72524;SDS011;60547;48.502;8.996;2023-03-11T11:00:45;4.78;;;1.38;;
72524;SDS011;60547;48.502;8.996;2023-03-11T11:03:23;2.58;;;0.90;;
72524;SDS011;60547;48.502;8.996;2023-03-11T11:05:59;3.15;;;1.10;;
72524;SDS011;60547;48.502;8.996;2023-03-11T11:08:30;3.13;;;1.10;;
72524;SDS011;60547;48.502;8.996;2023-03-11T11:10:57;2.58;;;1.25;;
72524;SDS011;60547;48.502;8.996;2023-03-11T11:13:26;3.55;;;1.10;;
72524;SDS011;60547;48.502;8.996;2023-03-11T11:18:26;3.40;;;1.13;;
72524;SDS011;60547;48.502;8.996;2023-03-11T11:20:59;2.38;;;0.90;;
72524;SDS011;60547;48.502;8.996;2023-03-11T11:23:35;3.28;;;1.52;;
72524;SDS011;60547;48.502;8.996;2023-03-11T11:26:06;3.45;;;1.08;;
72524;SDS011;60547;48.502;8.996;2023-03-11T11:28:40;3.15;;;0.80;;
72524;SDS011;60547;48.502;8.996;2023-03-11T11:31:18;2.63;;;1.25;;
72524;SDS011;60547;48.502;8.996;2023-03-11T11:33:53;2.90;;;0.95;;
72524;SDS011;60547;48.502;8.996;2023-03-11T11:36:21;3.72;;;1.30;;
72524;SDS011;60547;48.502;8.996;2023-03-11T11:38:51;2.83;;;1.20;;
72524;SDS011;60547;48.502;8.996;2023-03-11T11:41:19;2.90;;;0.90;;
72524;SDS011;60547;48.502;8.996;2023-03-11T11:43:59;2.05;;;0.90;;
72524;SDS011;60547;48.502;8.996;2023-03-11T11:46:41;2.33;;;1.00;;
72524;SDS011;60547;48.502;8.996;2023-03-11T11:49:32;3.22;;;1.08;;
72524;SDS011;60547;48.502;8.996;2023-03-11T11:52:01;4.00;;;1.20;;
72524;SDS011;60547;48.502;8.996;2023-03-11T11:57:15;3.42;;;1.17;;
72524;SDS011;60547;48.502;8.996;2023-03-11T11:59:43;2.70;;;1.05;;
72524;SDS011;60547;48.502;8.996;2023-03-11T12:10:13;2.75;;;1.35;;
72524;SDS011;60547;48.502;8.996;2023-03-11T12:12:49;4.32;;;1.13;;
72524;SDS011;60547;48.502;8.996;2023-03-11T12:15:25;2.00;;;1.00;;
72524;SDS011;60547;48.502;8.996;2023-03-11T12:18:08;3.63;;;1.25;;
72524;SDS011;60547;48.502;8.996;2023-03-11T12:20:42;1.27;;;0.77;;
72524;SDS011;60547;48.502;8.996;2023-03-11T12:23:55;2.42;;;1.00;;
72524;SDS011;60547;48.502;8.996;2023-03-11T12:26:16;1.83;;;0.98;;
72524;SDS011;60547;48.502;8.996;2023-03-11T12:31:24;2.90;;;1.17;;
72524;SDS011;60547;48.502;8.996;2023-03-11T12:36:34;2.72;;;1.05;;
72524;SDS011;60547;48.502;8.996;2023-03-11T12:39:03;1.80;;;1.00;;
72524;SDS011;60547;48.502;8.996;2023-03-11T12:41:35;2.45;;;1.00;;
72524;SDS011;60547;48.502;8.996;2023-03-11T12:44:11;3.35;;;1.10;;
72524;SDS011;60547;48.502;8.996;2023-03-11T12:49:26;2.10;;;1.08;;
72524;SDS011;60547;48.502;8.996;2023-03-11T12:52:29;2.58;;;1.00;;
72524;SDS011;60547;48.502;8.996;2023-03-11T12:57:30;2.92;;;1.00;;
72524;SDS011;60547;48.502;8.996;2023-03-11T13:00:12;3.63;;;1.40;;
72524;SDS011;60547;48.502;8.996;2023-03-11T13:02:53;2.08;;;1.10;;
72524;SDS011;60547;48.502;8.996;2023-03-11T13:08:35;2.97;;;1.10;;
72524;SDS011;60547;48.502;8.996;2023-03-11T13:14:08;2.47;;;1.17;;
72524;SDS011;60547;48.502;8.996;2023-03-11T13:16:34;2.38;;;1.10;;
72524;SDS011;60547;48.502;8.996;2023-03-11T13:19:26;2.65;;;1.00;;
72524;SDS011;60547;48.502;8.996;2023-03-11T13:21:55;4.53;;;1.10;;
72524;SDS011;60547;48.502;8.996;2023-03-11T13:27:02;2.38;;;0.90;;
72524;SDS011;60547;48.502;8.996;2023-03-11T13:40:23;2.20;;;1.13;;
72524;SDS011;60547;48.502;8.996;2023-03-11T13:43:00;3.65;;;1.02;;
72524;SDS011;60547;48.502;8.996;2023-03-11T13:47:59;2.47;;;0.82;;
72524;SDS011;60547;48.502;8.996;2023-03-11T13:50:52;2.38;;;0.90;;
72524;SDS011;60547;48.502;8.996;2023-03-11T13:53:24;3.20;;;0.98;;
72524;SDS011;60547;48.502;8.996;2023-03-11T13:55:55;2.90;;;1.10;;
72524;SDS011;60547;48.502;8.996;2023-03-11T13:58:21;4.05;;;1.30;;
72524;SDS011;60547;48.502;8.996;2023-03-11T14:00:53;3.75;;;1.10;;
72524;SDS011;60547;48.502;8.996;2023-03-11T14:03:23;2.28;;;1.05;;
72524;SDS011;60547;48.502;8.996;2023-03-11T14:08:42;2.38;;;0.82;;
72524;SDS011;60547;48.502;8.996;2023-03-11T14:11:23;3.53;;;1.17;;
72524;SDS011;60547;48.502;8.996;2023-03-11T14:13:51;3.38;;;1.40;;
72524;SDS011;60547;48.502;8.996;2023-03-11T14:19:02;2.58;;;0.95;;
72524;SDS011;60547;48.502;8.996;2023-03-11T14:21:28;4.28;;;1.35;;
72524;SDS011;60547;48.502;8.996;2023-03-11T14:23:56;2.40;;;1.10;;
72524;SDS011;60547;48.502;8.996;2023-03-11T14:26:26;2.10;;;1.00;;
72524;SDS011;60547;48.502;8.996;2023-03-11T14:28:55;3.55;;;1.17;;
72524;SDS011;60547;48.502;8.996;2023-03-11T14:31:35;2.65;;;1.10;;
72524;SDS011;60547;48.502;8.996;2023-03-11T14:34:09;3.65;;;1.35;;
72524;SDS011;60547;48.502;8.996;2023-03-11T14:36:40;1.98;;;1.00;;
72524;SDS011;60547;48.502;8.996;2023-03-11T14:42:07;2.15;;;1.05;;
72524;SDS011;60547;48.502;8.996;2023-03-11T14:45:02;2.67;;;1.10;;
72524;SDS011;60547;48.502;8.996;2023-03-11T14:50:22;7.35;;;1.50;;
72524;SDS011;60547;48.502;8.996;2023-03-11T14:55:24;4.13;;;1.10;;
72524;SDS011;60547;48.502;8.996;2023-03-11T14:57:51;3.65;;;1.33;;
72524;SDS011;60547;48.502;8.996;2023-03-11T15:00:21;2.63;;;1.08;;
72524;SDS011;60547;48.502;8.996;2023-03-11T15:02:54;2.75;;;1.50;;
72524;SDS011;60547;48.502;8.996;2023-03-11T15:05:25;3.95;;;1.35;;
72524;SDS011;60547;48.502;8.996;2023-03-11T15:07:59;3.20;;;1.20;;
72524;SDS011;60547;48.502;8.996;2023-03-11T15:10:26;2.65;;;1.30;;
72524;SDS011;60547;48.502;8.996;2023-03-11T15:13:02;3.85;;;1.30;;
72524;SDS011;60547;48.502;8.996;2023-03-11T15:15:30;2.72;;;1.20;;
72524;SDS011;60547;48.502;8.996;2023-03-11T15:17:57;2.67;;;0.90;;
72524;SDS011;60547;48.502;8.996;2023-03-11T15:20:27;2.90;;;1.20;;
72524;SDS011;60547;48.502;8.996;2023-03-11T15:22:56;2.28;;;1.02;;
72524;SDS011;60547;48.502;8.996;2023-03-11T15:25:25;3.33;;;1.15;;
72524;SDS011;60547;48.502;8.996;2023-03-11T15:27:51;2.97;;;1.23;;
72524;SDS011;60547;48.502;8.996;2023-03-11T15:30:24;1.75;;;0.88;;
72524;SDS011;60547;48.502;8.996;2023-03-11T15:32:52;3.28;;;1.40;;
72524;SDS011;60547;48.502;8.996;2023-03-11T15:35:19;3.53;;;1.30;;
72524;SDS011;60547;48.502;8.996;2023-03-11T15:38:17;3.20;;;1.10;;
72524;SDS011;60547;48.502;8.996;2023-03-11T15:40:50;4.90;;;1.30;;
72524;SDS011;60547;48.502;8.996;2023-03-11T15:43:22;1.85;;;1.00;;
72524;SDS011;60547;48.502;8.996;2023-03-11T15:45:51;4.07;;;1.20;;
72524;SDS011;60547;48.502;8.996;2023-03-11T15:48:18;2.75;;;1.10;;
72524;SDS011;60547;48.502;8.996;2023-03-11T15:50:46;2.42;;;1.10;;
72524;SDS011;60547;48.502;8.996;2023-03-11T15:53:29;3.03;;;1.30;;
72524;SDS011;60547;48.502;8.996;2023-03-11T15:55:59;6.60;;;2.90;;
72524;SDS011;60547;48.502;8.996;2023-03-11T15:58:31;3.13;;;1.20;;
72524;SDS011;60547;48.502;8.996;2023-03-11T16:00:56;4.40;;;1.38;;
72524;SDS011;60547;48.502;8.996;2023-03-11T16:03:22;2.05;;;1.13;;
72524;SDS011;60547;48.502;8.996;2023-03-11T16:05:48;3.38;;;1.00;;
72524;SDS011;60547;48.502;8.996;2023-03-11T16:08:14;4.30;;;1.95;;
72524;SDS011;60547;48.502;8.996;2023-03-11T16:10:40;3.75;;;1.80;;
72524;SDS011;60547;48.502;8.996;2023-03-11T16:13:10;4.10;;;1.85;;
72524;SDS011;60547;48.502;8.996;2023-03-11T16:15:37;5.32;;;2.20;;
72524;SDS011;60547;48.502;8.996;2023-03-11T16:18:03;2.50;;;1.10;;
72524;SDS011;60547;48.502;8.996;2023-03-11T16:20:39;3.88;;;1.50;;